Time;durP1;ratioP1;P1;durP2;ratioP2;P2;SDS_P1;SDS_P2;PMS_P1;PMS_P2;Temp;Humidity;BMP_temperature;BMP_pressure;BME280_temperature;BME280_humidity;BME280_pressure;Samples;Min_cycle;Max_cycle;Signal;HPM_P1;HPM_P2
2021/03/29 00:00:28;;;;;;;25.50;7.57;;;;;;;8.88;65.68;102621.69;4980130;28;20556;-74
2021/03/29 00:02:55;;;;;;;26.83;7.38;;;;;;;8.85;65.52;102621.03;4972260;28;20105;-74
2021/03/29 00:05:23;;;;;;;23.02;7.57;;;;;;;8.82;65.38;102621.19;4977307;28;20059;-75
2021/03/29 00:07:55;;;;;;;26.95;7.75;;;;;;;8.78;65.73;102625.78;4980290;28;20054;-75
2021/03/29 00:10:21;;;;;;;26.10;7.45;;;;;;;8.79;65.40;102622.22;4971218;28;20054;-75
2021/03/29 00:12:50;;;;;;;18.10;7.47;;;;;;;8.80;65.60;102617.81;4983448;28;20062;-75
2021/03/29 00:15:19;;;;;;;18.98;7.13;;;;;;;8.81;65.66;102620.34;4976207;28;20456;-75
2021/03/29 00:17:45;;;;;;;24.92;7.72;;;;;;;8.82;65.43;102621.19;4977183;28;20066;-75
2021/03/29 00:20:14;;;;;;;26.02;7.45;;;;;;;8.78;65.62;102614.47;4978220;28;20117;-75
2021/03/29 00:22:41;;;;;;;25.77;8.57;;;;;;;8.81;65.20;102609.06;4983846;28;20058;-74
2021/03/29 00:25:12;;;;;;;22.10;7.18;;;;;;;8.76;65.48;102613.72;4977754;28;20103;-74
2021/03/29 00:27:38;;;;;;;25.33;7.07;;;;;;;8.73;65.84;102617.34;4982809;28;20123;-75
2021/03/29 00:30:12;;;;;;;25.00;7.40;;;;;;;8.67;65.68;102608.09;4979158;28;20054;-74
2021/03/29 00:32:39;;;;;;;29.92;8.10;;;;;;;8.70;65.63;102613.16;4961339;28;20057;-75
2021/03/29 00:35:06;;;;;;;21.70;7.28;;;;;;;8.71;65.60;102600.91;4981694;28;20054;-75
2021/03/29 00:37:34;;;;;;;23.40;7.38;;;;;;;8.69;65.77;102600.16;4976762;28;20462;-76
2021/03/29 00:40:00;;;;;;;24.48;7.88;;;;;;;8.70;65.80;102607.06;4982587;28;20062;-75
2021/03/29 00:42:27;;;;;;;31.75;8.07;;;;;;;8.69;65.59;102605.38;4974584;28;20069;-73
2021/03/29 00:44:53;;;;;;;23.25;7.35;;;;;;;8.69;65.78;102601.00;4975020;28;20081;-73
2021/03/29 00:47:21;;;;;;;27.90;7.50;;;;;;;8.65;65.44;102594.25;4978490;28;20516;-74
2021/03/29 00:49:47;;;;;;;26.45;7.97;;;;;;;8.65;65.56;102593.44;4971123;28;20127;-73
2021/03/29 00:52:14;;;;;;;20.40;7.20;;;;;;;8.57;65.75;102586.03;4971399;28;20123;-74
2021/03/29 00:54:42;;;;;;;29.67;8.10;;;;;;;8.62;65.85;102597.03;4973947;28;20114;-74
2021/03/29 00:57:09;;;;;;;30.57;9.47;;;;;;;8.60;66.25;102593.69;4982060;28;20054;-73
2021/03/29 00:59:36;;;;;;;31.23;7.72;;;;;;;8.59;66.28;102591.16;4970438;28;20753;-73
2021/03/29 01:02:03;;;;;;;32.88;7.82;;;;;;;8.57;66.14;102586.03;4980584;28;21018;-72
2021/03/29 01:04:29;;;;;;;22.30;7.30;;;;;;;8.61;65.94;102584.06;4983239;28;20089;-72
2021/03/29 01:06:56;;;;;;;25.23;7.97;;;;;;;8.59;66.02;102573.69;4974517;28;20446;-74
2021/03/29 01:09:25;;;;;;;22.73;7.43;;;;;;;8.62;66.02;102580.50;4967595;28;20066;-73
2021/03/29 01:11:54;;;;;;;26.15;8.38;;;;;;;8.64;66.35;102584.72;4972039;28;21030;-74
2021/03/29 01:14:22;;;;;;;;;;;;;;;8.66;66.10;102589.84;4979998;28;20058;-74
2021/03/29 01:16:54;;;;;;;27.48;8.77;;;;;;;8.62;66.41;102581.34;4979062;28;19988;-74
2021/03/29 01:19:33;;;;;;;27.15;7.85;;;;;;;8.62;66.25;102572.66;4965393;28;21438;-74
2021/03/29 01:22:06;;;;;;;28.73;7.95;;;;;;;8.66;66.63;102568.94;4977661;28;20062;-74
2021/03/29 01:24:51;;;;;;;26.05;9.27;;;;;;;8.68;66.11;102567.94;4980795;28;20050;-74
2021/03/29 01:27:21;;;;;;;26.08;8.52;;;;;;;8.69;65.93;102569.59;4972551;28;20074;-74
2021/03/29 01:29:49;;;;;;;27.38;7.95;;;;;;;8.70;65.96;102562.59;4980555;28;20062;-74
2021/03/29 01:32:15;;;;;;;29.07;9.03;;;;;;;8.73;65.89;102566.81;4979971;28;20453;-74
2021/03/29 01:34:42;;;;;;;24.33;8.85;;;;;;;8.73;65.88;102561.56;4975699;28;20858;-74
2021/03/29 01:37:10;;;;;;;28.10;7.90;;;;;;;8.77;65.69;102568.31;4994488;28;20141;-74
2021/03/29 01:39:38;;;;;;;24.13;8.30;;;;;;;8.79;65.92;102574.28;4970742;28;20108;-74
2021/03/29 01:42:05;;;;;;;26.33;8.48;;;;;;;8.80;65.56;102576.81;4979834;28;20065;-74
2021/03/29 01:44:31;;;;;;;27.25;7.85;;;;;;;8.83;65.61;102578.41;4980962;28;20089;-74
2021/03/29 01:46:58;;;;;;;29.98;7.60;;;;;;;8.89;65.52;102588.50;4986901;28;20054;-74
2021/03/29 01:49:25;;;;;;;25.85;7.35;;;;;;;8.96;65.00;102595.06;4987527;28;20081;-74
2021/03/29 01:51:53;;;;;;;24.80;7.55;;;;;;;9.02;64.56;102601.69;4981315;28;20058;-74
2021/03/29 01:54:21;;;;;;;24.50;7.32;;;;;;;9.06;64.58;102584.88;4981115;28;20118;-74
2021/03/29 01:56:47;;;;;;;23.77;6.63;;;;;;;9.11;63.71;102585.41;4977359;28;20413;-74
2021/03/29 01:59:13;;;;;;;20.27;6.85;;;;;;;9.16;64.02;102583.38;4986522;28;20132;-74
2021/03/29 02:01:39;;;;;;;25.08;7.57;;;;;;;9.21;64.15;102597.03;4980915;28;20117;-74
2021/03/29 02:04:07;;;;;;;20.02;7.22;;;;;;;9.26;63.47;102592.34;4985720;28;20591;-74
2021/03/29 02:06:34;;;;;;;29.25;7.35;;;;;;;9.31;63.17;102578.97;4967674;28;20117;-74
2021/03/29 02:09:04;;;;;;;30.77;7.53;;;;;;;9.33;62.96;102576.25;4975280;28;20089;-73
2021/03/29 02:11:31;;;;;;;28.52;7.45;;;;;;;9.35;63.12;102577.84;4968089;28;20062;-74
2021/03/29 02:13:59;;;;;;;22.05;7.55;;;;;;;9.38;62.72;102584.66;4993503;28;20054;-74
2021/03/29 02:16:28;;;;;;;31.90;7.50;;;;;;;9.44;62.50;102576.41;4978572;28;20100;-74
2021/03/29 02:19:01;;;;;;;32.60;7.20;;;;;;;9.43;62.47;102572.97;4963842;28;20561;-74
2021/03/29 02:21:37;;;;;;;22.25;6.20;;;;;;;9.43;62.24;102578.22;4965037;28;20062;-74
2021/03/29 02:24:04;;;;;;;18.73;7.03;;;;;;;9.44;62.59;102581.66;4976833;28;20133;-74
2021/03/29 02:26:35;;;;;;;31.95;7.78;;;;;;;9.43;62.37;102582.63;4984968;28;20125;-74
2021/03/29 02:29:02;;;;;;;24.85;7.57;;;;;;;9.44;62.17;102579.88;4979479;28;20054;-74
2021/03/29 02:31:29;;;;;;;25.73;8.23;;;;;;;9.36;62.49;102569.03;4977207;28;20494;-74
2021/03/29 02:33:58;;;;;;;21.13;6.82;;;;;;;9.39;62.47;102565.38;4977996;28;20465;-74
2021/03/29 02:36:24;;;;;;;24.02;7.78;;;;;;;9.41;62.50;102580.09;4975635;28;20117;-74
2021/03/29 02:38:51;;;;;;;23.92;6.95;;;;;;;9.42;62.24;102581.75;4967546;28;20063;-74
2021/03/29 02:41:21;;;;;;;23.70;7.38;;;;;;;9.39;62.29;102578.47;4962685;28;20141;-75
2021/03/29 02:43:48;;;;;;;21.25;6.47;;;;;;;9.35;62.57;102579.59;4985995;28;20062;-73
2021/03/29 02:46:15;;;;;;;24.20;8.25;;;;;;;9.34;62.54;102581.38;4985820;28;20497;-74
2021/03/29 02:48:45;;;;;;;31.20;8.02;;;;;;;9.32;62.78;102579.81;4977995;28;20117;-74
2021/03/29 02:51:13;;;;;;;26.20;8.18;;;;;;;9.27;62.53;102575.69;4973307;28;20501;-74
2021/03/29 02:53:47;;;;;;;23.50;8.02;;;;;;;9.28;62.76;102582.59;4967703;28;20065;-74
2021/03/29 02:56:18;;;;;;;27.63;8.48;;;;;;;9.23;62.87;102591.69;4985055;28;20050;-74
2021/03/29 02:58:47;;;;;;;26.83;8.45;;;;;;;9.22;62.98;102584.78;4980060;28;20055;-74
2021/03/29 03:01:16;;;;;;;27.05;9.00;;;;;;;9.12;63.23;102581.88;4985577;28;20093;-74
2021/03/29 03:03:43;;;;;;;30.33;9.32;;;;;;;9.12;63.35;102586.28;4975900;28;20536;-74
2021/03/29 03:06:10;;;;;;;30.63;10.43;;;;;;;9.06;63.19;102582.25;4968264;28;20104;-74
2021/03/29 03:08:38;;;;;;;31.90;11.13;;;;;;;9.03;63.61;102580.66;4984853;28;20058;-74
2021/03/29 03:11:12;;;;;;;43.70;11.17;;;;;;;9.03;63.57;102577.19;4972103;28;20066;-74
2021/03/29 03:13:39;;;;;;;41.78;12.07;;;;;;;8.99;63.49;102584.38;4984537;28;20054;-74
2021/03/29 03:16:07;;;;;;;37.72;12.00;;;;;;;8.94;63.79;102572.50;4962001;28;20826;-74
2021/03/29 03:18:33;;;;;;;31.50;11.55;;;;;;;8.98;63.74;102581.88;4980701;28;20069;-74
2021/03/29 03:20:59;;;;;;;37.60;12.98;;;;;;;8.91;63.96;102587.47;4974909;28;20058;-74
2021/03/29 03:23:25;;;;;;;31.27;11.48;;;;;;;8.90;63.72;102572.72;4984384;28;20054;-74
2021/03/29 03:25:53;;;;;;;33.33;11.00;;;;;;;8.91;63.43;102584.00;4972109;28;20659;-73
2021/03/29 03:28:22;;;;;;;31.90;11.90;;;;;;;8.88;63.70;102579.81;4982742;28;20062;-74
2021/03/29 03:30:54;;;;;;;32.50;10.10;;;;;;;8.85;64.00;102579.97;4983547;28;20672;-75
2021/03/29 03:33:22;;;;;;;32.03;10.00;;;;;;;8.85;63.73;102574.75;4952642;28;20128;-74
2021/03/29 03:35:52;;;;;;;28.77;10.68;;;;;;;8.82;63.91;102574.94;4965615;28;20490;-74
2021/03/29 03:38:22;;;;;;;28.08;10.20;;;;;;;8.85;63.95;102574.75;4977015;28;20128;-74
2021/03/29 03:40:53;;;;;;;29.48;9.57;;;;;;;8.80;63.71;102568.97;4985386;28;20671;-74
2021/03/29 03:43:23;;;;;;;28.80;9.68;;;;;;;8.72;63.94;102560.72;4960219;28;20058;-74
2021/03/29 03:45:58;;;;;;;32.42;9.35;;;;;;;8.78;63.78;102568.22;4980700;28;20058;-74
2021/03/29 03:48:25;;;;;;;22.70;8.77;;;;;;;8.80;64.18;102568.97;4986042;28;20557;-74
2021/03/29 03:50:52;;;;;;;29.00;10.13;;;;;;;8.80;63.96;102571.59;4975288;28;20105;-73
2021/03/29 03:53:21;;;;;;;28.02;9.00;;;;;;;8.79;63.85;102575.13;4979054;28;20510;-74
2021/03/29 03:55:52;;;;;;;31.88;9.65;;;;;;;8.80;64.19;102566.34;4978366;28;20149;-74
2021/03/29 03:58:19;;;;;;;23.65;7.75;;;;;;;8.76;64.26;102564.00;4993863;28;20136;-74
2021/03/29 04:00:46;;;;;;;25.80;7.45;;;;;;;8.78;63.90;102569.97;4973211;28;20054;-74
2021/03/29 04:03:12;;;;;;;40.83;9.20;;;;;;;8.79;64.23;102561.22;4979987;28;20054;-74
2021/03/29 04:05:38;;;;;;;20.35;7.53;;;;;;;8.79;64.31;102580.34;4976663;28;20109;-74
2021/03/29 04:08:24;;;;;;;21.88;7.95;;;;;;;8.77;64.06;102558.69;4969364;28;20056;-74
2021/03/29 04:10:55;;;;;;;27.88;7.63;;;;;;;8.81;64.29;102572.41;4973879;28;20080;-74
2021/03/29 04:13:28;;;;;;;36.70;9.52;;;;;;;8.82;64.39;102580.19;4961999;28;20120;-74
2021/03/29 04:15:56;;;;;;;24.63;8.38;;;;;;;8.82;64.30;102576.69;4981903;28;20627;-74
2021/03/29 04:18:22;;;;;;;26.73;7.57;;;;;;;8.84;64.14;102588.78;4974005;28;20121;-74
2021/03/29 04:20:51;;;;;;;25.75;7.22;;;;;;;8.79;64.58;102577.75;4979465;28;20120;-75
2021/03/29 04:23:18;;;;;;;26.27;7.82;;;;;;;8.81;64.36;102588.13;4976620;28;20058;-74
2021/03/29 04:25:46;;;;;;;21.25;7.07;;;;;;;8.77;64.09;102586.63;4966768;28;20054;-76
2021/03/29 04:28:12;;;;;;;21.63;7.32;;;;;;;8.82;64.56;102584.56;4950556;28;20161;-74
2021/03/29 04:30:38;;;;;;;21.40;6.47;;;;;;;8.82;64.23;102584.56;4971483;28;20104;-73
2021/03/29 04:33:05;;;;;;;20.48;6.78;;;;;;;8.83;64.45;102587.09;4997615;28;20113;-74
2021/03/29 04:35:31;;;;;;;21.17;7.50;;;;;;;8.85;64.20;102587.84;4978026;28;20132;-73
2021/03/29 04:37:57;;;;;;;24.98;7.68;;;;;;;8.82;64.20;102592.41;4984045;28;20058;-73
2021/03/29 04:40:25;;;;;;;24.83;6.63;;;;;;;8.83;64.16;102586.25;4979343;28;20074;-74
2021/03/29 04:42:52;;;;;;;29.08;7.65;;;;;;;8.84;64.29;102590.53;4978671;28;20069;-73
2021/03/29 04:45:19;;;;;;;30.90;6.97;;;;;;;8.84;64.35;102596.63;4970102;28;20058;-73
2021/03/29 04:47:45;;;;;;;21.08;6.93;;;;;;;8.82;64.35;102593.28;4970779;28;20062;-73
2021/03/29 04:50:17;;;;;;;20.02;6.65;;;;;;;8.85;64.47;102594.84;4978787;28;20065;-74
2021/03/29 04:52:43;;;;;;;26.80;7.53;;;;;;;8.85;64.49;102600.09;4983496;28;20053;-74
2021/03/29 04:55:13;;;;;;;20.30;6.32;;;;;;;8.88;64.09;102608.59;4980343;28;20146;-74
2021/03/29 04:57:39;;;;;;;26.27;7.00;;;;;;;8.85;64.25;102613.16;4974443;28;20062;-74
2021/03/29 05:00:06;;;;;;;21.92;6.53;;;;;;;8.85;64.71;102613.16;4983450;28;20108;-73
2021/03/29 05:02:33;;;;;;;18.90;6.13;;;;;;;8.83;64.53;102607.19;4978244;28;20140;-74
2021/03/29 05:04:59;;;;;;;21.73;6.97;;;;;;;8.85;64.27;102619.25;4981604;28;20054;-73
2021/03/29 05:07:25;;;;;;;18.08;6.00;;;;;;;8.82;65.11;102614.19;4976808;28;20054;-74
2021/03/29 05:09:51;;;;;;;19.10;6.43;;;;;;;8.78;64.47;102604.84;4961240;28;20140;-74
2021/03/29 05:12:20;;;;;;;24.30;6.82;;;;;;;8.83;64.50;102620.28;4979218;28;20565;-74
2021/03/29 05:14:46;;;;;;;26.20;7.07;;;;;;;8.83;64.36;102630.75;4959521;28;20042;-74
2021/03/29 05:17:12;;;;;;;20.85;7.30;;;;;;;8.81;64.26;102622.13;4983915;28;20067;-73
2021/03/29 05:19:39;;;;;;;20.83;6.05;;;;;;;8.80;64.47;102621.31;4981979;28;20054;-73
2021/03/29 05:22:08;;;;;;;26.17;7.45;;;;;;;8.74;64.69;102616.41;4993277;28;20054;-73
2021/03/29 05:24:36;;;;;;;15.35;6.72;;;;;;;8.80;64.74;102634.38;4976067;28;20058;-74
2021/03/29 05:27:03;;;;;;;17.98;6.30;;;;;;;8.78;64.48;102632.78;4984249;28;20191;-73
2021/03/29 05:29:40;;;;;;;22.20;5.97;;;;;;;8.71;64.80;102617.44;4985676;28;20468;-73
2021/03/29 05:32:29;;;;;;;21.75;6.72;;;;;;;8.79;64.69;102637.09;4979790;28;20058;-73
2021/03/29 05:34:57;;;;;;;23.10;6.30;;;;;;;8.76;64.79;102634.63;4985228;28;20517;-73
2021/03/29 05:37:24;;;;;;;21.90;6.50;;;;;;;8.78;64.34;102638.88;4978376;28;20058;-73
2021/03/29 05:39:53;;;;;;;26.38;6.38;;;;;;;8.80;64.88;102644.84;4983435;28;20058;-73
2021/03/29 05:42:20;;;;;;;25.27;6.10;;;;;;;8.79;64.71;102648.38;4979676;28;20105;-73
2021/03/29 05:44:47;;;;;;;24.05;6.38;;;;;;;8.81;64.89;102649.13;4985850;28;20512;-74
2021/03/29 05:47:15;;;;;;;22.42;5.95;;;;;;;8.83;64.92;102643.81;4980891;28;20591;-74
2021/03/29 05:49:42;;;;;;;16.45;5.85;;;;;;;8.84;65.08;102643.75;4986513;28;20069;-73
2021/03/29 05:52:08;;;;;;;18.98;5.28;;;;;;;8.87;64.70;102653.19;4982662;28;20054;-75
2021/03/29 05:54:34;;;;;;;18.35;5.75;;;;;;;8.93;64.27;102657.22;4971864;28;20086;-74
2021/03/29 05:57:00;;;;;;;31.23;7.40;;;;;;;8.94;64.62;102669.34;4985061;28;20116;-74
2021/03/29 05:59:39;;;;;;;22.88;6.70;;;;;;;8.93;64.92;102659.81;4979352;28;20054;-74
2021/03/29 06:02:06;;;;;;;20.77;6.43;;;;;;;9.02;64.79;102673.22;4987462;28;20129;-74
2021/03/29 06:04:48;;;;;;;24.23;6.28;;;;;;;8.96;64.64;102660.50;4964215;28;20064;-74
2021/03/29 06:07:17;;;;;;;25.02;5.82;;;;;;;9.07;64.81;102684.22;4978654;28;20133;-74
2021/03/29 06:09:45;;;;;;;21.63;6.93;;;;;;;9.07;64.73;102680.78;4978171;28;20120;-74
2021/03/29 06:12:13;;;;;;;20.88;6.07;;;;;;;9.10;64.51;102693.72;4986079;28;20434;-74
2021/03/29 06:14:39;;;;;;;18.50;5.80;;;;;;;9.09;64.88;102685.00;4989122;28;20065;-74
2021/03/29 06:17:07;;;;;;;30.38;7.35;;;;;;;9.16;64.50;102695.13;4977564;28;20291;-74
2021/03/29 06:19:44;;;;;;;20.20;5.10;;;;;;;9.19;64.42;102693.16;4982979;28;20128;-74
2021/03/29 06:22:33;;;;;;;18.45;6.43;;;;;;;9.20;64.05;102689.59;4958837;28;20104;-74
2021/03/29 06:25:17;;;;;;;16.23;6.13;;;;;;;9.16;64.13;102693.34;4968401;28;20058;-73
2021/03/29 06:27:56;;;;;;;23.25;6.13;;;;;;;9.22;64.26;102695.59;4974794;28;20492;-73
2021/03/29 06:30:36;;;;;;;20.85;5.68;;;;;;;9.26;63.93;102702.31;4985220;28;20501;-73
2021/03/29 06:33:07;;;;;;;15.68;5.65;;;;;;;9.26;63.67;102698.88;4976556;28;20090;-73
2021/03/29 06:35:41;;;;;;;23.88;7.10;;;;;;;9.29;63.76;102704.78;4981145;28;20061;-73
2021/03/29 06:38:12;;;;;;;22.23;6.70;;;;;;;9.32;63.87;102703.72;4978770;28;20058;-74
2021/03/29 06:40:44;;;;;;;18.55;5.70;;;;;;;9.27;63.97;102704.03;4974478;28;20058;-74
2021/03/29 06:43:29;;;;;;;16.92;7.10;;;;;;;9.31;63.86;102715.16;4981363;28;20061;-74
2021/03/29 06:45:59;;;;;;;25.60;7.35;;;;;;;9.31;64.06;102707.31;4983645;28;20054;-73
2021/03/29 06:48:33;;;;;;;19.20;5.93;;;;;;;9.24;64.01;102695.50;4980624;28;20058;-73
2021/03/29 06:51:03;;;;;;;24.38;7.43;;;;;;;9.28;63.93;102712.72;4973459;28;20533;-73
2021/03/29 06:53:29;;;;;;;15.30;5.95;;;;;;;9.31;63.91;102715.16;4969511;28;20058;-72
2021/03/29 06:55:57;;;;;;;32.30;7.47;;;;;;;9.25;63.87;102705.03;4982387;28;20054;-73
2021/03/29 06:58:27;;;;;;;22.23;6.40;;;;;;;9.32;64.04;102710.75;4969512;28;20062;-73
2021/03/29 07:00:55;;;;;;;26.85;6.38;;;;;;;9.33;64.09;102717.66;4967780;28;20097;-73
2021/03/29 07:03:21;;;;;;;23.80;6.97;;;;;;;9.31;64.28;102717.78;4974167;28;20065;-73
2021/03/29 07:05:50;;;;;;;15.38;5.78;;;;;;;9.36;64.01;102720.13;4987055;28;20470;-74
2021/03/29 07:08:18;;;;;;;22.25;6.82;;;;;;;9.36;64.29;102722.72;4982336;28;20054;-73
2021/03/29 07:10:45;;;;;;;14.68;5.63;;;;;;;9.37;64.30;102727.88;4980101;28;20054;-73
2021/03/29 07:13:13;;;;;;;16.50;5.80;;;;;;;9.40;64.19;102719.00;4981703;28;20058;-73
2021/03/29 07:15:40;;;;;;;;;;;;;;;9.44;64.67;102729.19;4979581;28;20065;-74
2021/03/29 07:18:07;;;;;;;23.42;7.53;;;;;;;9.49;64.20;102728.94;4979239;28;19980;-74
2021/03/29 07:20:35;;;;;;;21.42;6.90;;;;;;;9.46;64.14;102729.94;4987230;28;20062;-73
2021/03/29 07:23:02;;;;;;;28.13;7.38;;;;;;;9.52;63.95;102720.84;4981632;28;20058;-74
2021/03/29 07:25:35;;;;;;;23.35;6.15;;;;;;;9.50;63.95;102723.56;4987582;28;20137;-74
2021/03/29 07:28:09;;;;;;;24.90;7.10;;;;;;;9.56;64.32;102727.59;4967731;28;20089;-73
2021/03/29 07:30:42;;;;;;;24.40;6.25;;;;;;;9.61;64.13;102736.03;4973188;28;20062;-73
2021/03/29 07:33:11;;;;;;;22.13;5.75;;;;;;;9.63;63.95;102735.94;4986042;28;20050;-75
2021/03/29 07:35:50;;;;;;;20.42;6.40;;;;;;;9.65;63.57;102741.94;4980701;28;20054;-73
2021/03/29 07:38:22;;;;;;;12.93;5.85;;;;;;;9.73;64.09;102736.22;4986434;28;20061;-74
2021/03/29 07:40:51;;;;;;;19.00;6.72;;;;;;;9.77;63.56;102738.56;4981326;28;20065;-74
2021/03/29 07:43:23;;;;;;;23.98;6.70;;;;;;;9.80;63.58;102733.13;4981597;28;20394;-73
2021/03/29 07:46:04;;;;;;;27.80;7.05;;;;;;;9.86;63.80;102743.25;4977509;28;20058;-74
2021/03/29 07:48:39;;;;;;;16.98;6.20;;;;;;;9.92;63.46;102734.16;4986252;28;20050;-74
2021/03/29 07:51:16;;;;;;;16.98;6.07;;;;;;;9.99;63.83;102740.69;4982041;28;20481;-73
2021/03/29 07:53:48;;;;;;;21.33;6.32;;;;;;;10.04;63.42;102749.13;4985341;28;20054;-73
2021/03/29 07:56:45;;;;;;;16.85;6.65;;;;;;;10.08;63.28;102745.34;4963899;28;20127;-74
2021/03/29 07:59:12;;;;;;;19.05;6.97;;;;;;;10.16;63.45;102747.50;4953219;28;20135;-75
2021/03/29 08:01:57;;;;;;;24.05;6.97;;;;;;;10.22;63.73;102769.88;4986798;28;20116;-73
2021/03/29 08:05:01;;;;;;;18.73;6.05;;;;;;;10.32;63.34;102750.03;4979932;28;20116;-73
2021/03/29 08:07:41;;;;;;;25.27;6.97;;;;;;;10.35;63.31;102741.97;4965954;28;20058;-76
2021/03/29 08:10:16;;;;;;;15.93;6.03;;;;;;;10.39;63.06;102748.72;4961841;28;20392;-73
2021/03/29 08:13:02;;;;;;;19.40;6.20;;;;;;;10.49;63.01;102754.22;4973164;28;20093;-73
2021/03/29 08:16:04;;;;;;;17.10;5.53;;;;;;;10.54;62.90;102762.59;4967605;28;20066;-73
2021/03/29 08:19:08;;;;;;;22.95;6.88;;;;;;;10.61;62.63;102763.91;4903840;29;20064;-74
2021/03/29 08:21:55;;;;;;;19.15;6.93;;;;;;;10.61;62.44;102771.78;4957494;28;20066;-73
2021/03/29 08:24:30;;;;;;;15.88;5.38;;;;;;;10.63;62.92;102767.28;4978911;28;20065;-73
2021/03/29 08:27:29;;;;;;;18.55;6.53;;;;;;;10.73;63.05;102772.78;4971247;28;20768;-73
2021/03/29 08:30:15;;;;;;;14.77;5.95;;;;;;;10.81;61.74;102783.59;4968863;28;20394;-73
2021/03/29 08:32:41;;;;;;;24.88;6.63;;;;;;;10.82;61.88;102779.19;4963108;28;20105;-73
2021/03/29 08:35:13;;;;;;;16.40;6.32;;;;;;;10.88;61.92;102779.66;4986569;28;20113;-73
2021/03/29 08:37:40;;;;;;;16.92;5.80;;;;;;;10.95;61.24;102768.75;4976517;28;20433;-73
2021/03/29 08:40:10;;;;;;;21.02;6.95;;;;;;;11.03;61.08;102788.28;4972390;28;20062;-72
2021/03/29 08:42:38;;;;;;;16.45;6.00;;;;;;;11.22;62.22;102781.81;4980414;28;20062;-74
2021/03/29 08:45:08;;;;;;;26.05;6.50;;;;;;;11.31;60.70;102789.09;4985996;28;20065;-73
2021/03/29 08:47:43;;;;;;;19.73;6.70;;;;;;;11.50;60.71;102785.22;4978716;28;20058;-74
2021/03/29 08:50:12;;;;;;;16.58;6.20;;;;;;;11.63;59.28;102791.31;4981794;28;20129;-73
2021/03/29 08:52:54;;;;;;;16.63;6.47;;;;;;;11.76;59.37;102796.56;4977951;28;20560;-73
2021/03/29 08:55:23;;;;;;;19.67;6.18;;;;;;;11.86;58.79;102800.25;4983514;28;20062;-73
2021/03/29 08:57:51;;;;;;;19.88;6.28;;;;;;;11.97;58.89;102808.25;4985845;28;20489;-73
2021/03/29 09:00:20;;;;;;;14.35;6.35;;;;;;;12.03;57.10;102799.94;4976679;28;20054;-73
2021/03/29 09:02:47;;;;;;;18.30;5.70;;;;;;;12.21;56.85;102797.81;4985951;28;20137;-74
2021/03/29 09:05:15;;;;;;;19.67;6.32;;;;;;;12.31;56.85;102810.31;4974830;28;20081;-73
2021/03/29 09:07:46;;;;;;;21.48;7.15;;;;;;;12.35;55.89;102812.63;4981864;28;20058;-74
2021/03/29 09:10:25;;;;;;;20.90;6.03;;;;;;;12.46;56.22;102804.78;4979159;28;20112;-73
2021/03/29 09:12:52;;;;;;;;;;;;;;;12.59;54.71;102815.28;4983929;28;20480;-73
2021/03/29 09:15:19;;;;;;;17.67;6.15;;;;;;;12.70;55.16;102805.75;4979631;28;19929;-73
2021/03/29 09:17:55;;;;;;;25.00;6.60;;;;;;;12.84;54.74;102808.25;4967771;28;20600;-73
2021/03/29 09:20:23;;;;;;;19.58;6.03;;;;;;;12.88;53.57;102807.06;4978207;28;20070;-72
2021/03/29 09:58:32;;;;;;;14.25;4.88;;;;;;;14.48;46.37;102841.47;4971907;28;20053;-73
2021/03/29 10:01:01;;;;;;;18.40;4.47;;;;;;;14.59;46.19;102855.50;4967646;28;20058;-73
2021/03/29 10:04:01;;;;;;;17.17;5.32;;;;;;;14.66;44.55;102847.09;4983100;28;20141;-73
2021/03/29 10:06:29;;;;;;;9.80;4.78;;;;;;;14.83;44.96;102859.78;4964604;28;20054;-73
2021/03/29 10:08:55;;;;;;;13.30;5.65;;;;;;;14.98;45.66;102858.53;4988214;28;20156;-73
2021/03/29 10:11:22;;;;;;;24.85;6.75;;;;;;;15.07;45.00;102849.00;4968011;28;20058;-73
2021/03/29 10:13:48;;;;;;;19.52;7.07;;;;;;;15.32;45.39;102845.16;4982558;28;20456;-73
2021/03/29 10:16:15;;;;;;;26.23;6.20;;;;;;;15.57;44.34;102851.88;4976993;28;20046;-73
2021/03/29 10:18:43;;;;;;;14.50;5.05;;;;;;;15.62;42.38;102852.31;4976440;28;20094;-73
2021/03/29 10:21:09;;;;;;;17.02;4.72;;;;;;;15.79;42.65;102852.72;4980848;28;20465;-72
2021/03/29 10:23:41;;;;;;;17.90;5.80;;;;;;;16.08;43.55;102860.78;4987130;28;20120;-73
2021/03/29 10:26:16;;;;;;;15.02;4.80;;;;;;;15.90;42.04;102847.34;4984178;28;20054;-73
2021/03/29 10:29:03;;;;;;;18.48;5.18;;;;;;;16.13;41.96;102845.38;4993650;28;20437;-72
2021/03/29 10:31:31;;;;;;;18.92;5.70;;;;;;;16.35;42.29;102862.03;4987792;28;20062;-73
2021/03/29 10:33:58;;;;;;;16.67;5.43;;;;;;;16.41;41.63;102856.19;4990555;28;20062;-72
2021/03/29 10:36:26;;;;;;;18.20;5.70;;;;;;;16.48;40.77;102848.53;4987965;28;20054;-73
2021/03/29 10:38:54;;;;;;;16.48;5.72;;;;;;;16.74;41.43;102849.69;4975438;28;20058;-73
2021/03/29 10:41:21;;;;;;;15.60;5.90;;;;;;;16.91;42.42;102852.66;4984125;28;20066;-73
2021/03/29 10:43:48;;;;;;;17.98;5.63;;;;;;;16.79;40.13;102836.00;4978032;28;20059;-73
2021/03/29 10:46:14;;;;;;;18.27;5.78;;;;;;;16.94;41.48;102849.75;5002472;28;20157;-73
2021/03/29 10:48:41;;;;;;;15.88;5.32;;;;;;;17.19;41.38;102851.81;4972439;28;20062;-72
2021/03/29 10:51:07;;;;;;;19.33;5.60;;;;;;;17.35;40.30;102835.34;4984703;28;20058;-74
2021/03/29 10:53:35;;;;;;;17.45;5.88;;;;;;;17.48;39.58;102844.81;4987381;28;20058;-73
2021/03/29 10:56:02;;;;;;;18.95;5.68;;;;;;;17.65;39.50;102838.75;4978619;28;20059;-73
2021/03/29 10:58:28;;;;;;;15.50;6.22;;;;;;;17.47;38.17;102840.50;4966142;28;20172;-72
2021/03/29 11:00:54;;;;;;;18.02;5.75;;;;;;;17.29;38.56;102835.03;4981568;28;20109;-73
2021/03/29 11:03:20;;;;;;;16.13;5.53;;;;;;;17.57;39.15;102842.13;4968070;28;20062;-73
2021/03/29 11:05:47;;;;;;;24.70;5.60;;;;;;;17.67;39.16;102843.94;4969207;28;20997;-75
2021/03/29 11:08:17;;;;;;;18.10;6.10;;;;;;;17.90;38.49;102844.44;4986800;28;20089;-74
2021/03/29 11:10:44;;;;;;;20.63;6.43;;;;;;;17.74;38.18;102843.22;4983562;28;20074;-73
2021/03/29 11:13:22;;;;;;;20.98;5.78;;;;;;;17.76;37.40;102848.38;4974570;28;20104;-74
2021/03/29 11:15:48;;;;;;;18.38;5.70;;;;;;;17.91;37.89;102852.25;4988679;28;20418;-75
2021/03/29 11:18:14;;;;;;;16.80;5.68;;;;;;;17.83;37.25;102841.50;4991958;28;20050;-74
2021/03/29 11:20:40;;;;;;;18.13;5.38;;;;;;;17.98;37.19;102842.72;4986235;28;20108;-73
2021/03/29 11:23:06;;;;;;;15.73;6.13;;;;;;;18.06;36.67;102844.66;4979716;28;20058;-73
2021/03/29 11:25:32;;;;;;;15.02;5.60;;;;;;;18.12;37.17;102853.84;4981298;28;20058;-74
2021/03/29 11:27:58;;;;;;;16.80;6.55;;;;;;;18.21;37.16;102847.66;4966355;28;20520;-73
2021/03/29 11:30:24;;;;;;;21.70;5.90;;;;;;;18.32;36.93;102843.97;4956221;28;20066;-73
2021/03/29 11:32:50;;;;;;;19.52;5.60;;;;;;;18.40;36.24;102845.88;4986373;28;20502;-74
2021/03/29 11:35:16;;;;;;;19.02;5.88;;;;;;;18.70;35.95;102844.69;4981631;28;20062;-74
2021/03/29 11:37:42;;;;;;;16.95;6.38;;;;;;;18.56;35.06;102848.69;4983557;28;20548;-74
2021/03/29 11:40:11;;;;;;;16.55;6.03;;;;;;;18.65;36.06;102858.44;4977748;28;20721;-73
2021/03/29 11:42:37;;;;;;;;;;;;;;;18.48;34.70;102849.44;5000674;28;20088;-73
2021/03/29 11:45:06;;;;;;;15.85;6.53;;;;;;;18.36;34.35;102848.81;4984374;28;19925;-73
2021/03/29 11:47:32;;;;;;;;;;;;;;;18.62;35.37;102853.44;4985264;28;20069;-73
2021/03/29 11:50:01;;;;;;;18.70;5.80;;;;;;;18.71;34.55;102851.69;4987158;28;19976;-73
2021/03/29 11:52:28;;;;;;;21.25;6.40;;;;;;;19.01;34.62;102847.84;4977774;28;20152;-73
2021/03/29 11:54:54;;;;;;;13.15;5.68;;;;;;;19.15;33.64;102851.78;4982065;28;20054;-73
2021/03/29 11:57:20;;;;;;;18.95;6.43;;;;;;;19.32;34.33;102840.28;4981207;28;20085;-73
2021/03/29 11:59:51;;;;;;;14.27;5.18;;;;;;;19.29;33.63;102851.25;4985508;28;20058;-75
2021/03/29 12:02:26;;;;;;;14.80;5.95;;;;;;;19.39;32.56;102855.63;4963032;28;20125;-73
2021/03/29 12:05:10;;;;;;;16.50;5.78;;;;;;;19.25;32.48;102857.00;4984096;28;20090;-73
2021/03/29 12:08:35;;;;;;;13.55;6.07;;;;;;;19.36;32.20;102849.59;4974920;28;20054;-73
2021/03/29 12:13:25;;;;;;;12.15;6.00;;;;;;;19.56;32.96;102852.94;4979704;28;20109;-73
2021/03/29 12:15:56;;;;;;;16.35;5.50;;;;;;;19.33;31.45;102851.78;4986167;28;20497;-72